sensor_id;sensor_type;location;lat;lon;timestamp;P1;durP1;ratioP1;P2;durP2;ratioP2
14001;SDS011;7076;51.280;12.584;2023-04-01T00:01:41;0.75;;;0.50;;
14001;SDS011;7076;51.280;12.584;2023-04-01T00:06:44;0.70;;;0.40;;
14001;SDS011;7076;51.280;12.584;2023-04-01T00:11:46;3.45;;;0.60;;
14001;SDS011;7076;51.280;12.584;2023-04-01T00:16:50;1.38;;;0.50;;
14001;SDS011;7076;51.280;12.584;2023-04-01T00:21:53;2.28;;;0.65;;
14001;SDS011;7076;51.280;12.584;2023-04-01T00:26:56;1.60;;;0.52;;
14001;SDS011;7076;51.280;12.584;2023-04-01T00:32:00;0.40;;;0.40;;
14001;SDS011;7076;51.280;12.584;2023-04-01T00:37:02;0.93;;;0.45;;
14001;SDS011;7076;51.280;12.584;2023-04-01T00:42:05;1.10;;;0.50;;
14001;SDS011;7076;51.280;12.584;2023-04-01T00:47:09;1.13;;;0.60;;
14001;SDS011;7076;51.280;12.584;2023-04-01T00:52:12;1.05;;;0.60;;
14001;SDS011;7076;51.280;12.584;2023-04-01T00:57:17;1.27;;;0.50;;
14001;SDS011;7076;51.280;12.584;2023-04-01T01:02:24;1.25;;;0.50;;
14001;SDS011;7076;51.280;12.584;2023-04-01T01:07:28;1.33;;;0.40;;
14001;SDS011;7076;51.280;12.584;2023-04-01T01:12:35;2.00;;;0.60;;
14001;SDS011;7076;51.280;12.584;2023-04-01T01:17:44;1.02;;;0.68;;
14001;SDS011;7076;51.280;12.584;2023-04-01T01:22:54;0.80;;;0.38;;
14001;SDS011;7076;51.280;12.584;2023-04-01T01:28:00;2.08;;;0.60;;
14001;SDS011;7076;51.280;12.584;2023-04-01T01:33:15;1.45;;;0.50;;
14001;SDS011;7076;51.280;12.584;2023-04-01T01:38:24;1.55;;;0.50;;
14001;SDS011;7076;51.280;12.584;2023-04-01T01:43:38;2.97;;;0.73;;
14001;SDS011;7076;51.280;12.584;2023-04-01T01:48:41;0.70;;;0.50;;
14001;SDS011;7076;51.280;12.584;2023-04-01T01:53:46;1.63;;;0.70;;
14001;SDS011;7076;51.280;12.584;2023-04-01T01:58:51;1.05;;;0.43;;
14001;SDS011;7076;51.280;12.584;2023-04-01T02:03:55;1.20;;;0.50;;
14001;SDS011;7076;51.280;12.584;2023-04-01T02:09:00;1.88;;;0.60;;
14001;SDS011;7076;51.280;12.584;2023-04-01T02:14:05;2.33;;;0.75;;
14001;SDS011;7076;51.280;12.584;2023-04-01T02:19:09;1.08;;;0.60;;
14001;SDS011;7076;51.280;12.584;2023-04-01T02:24:15;1.50;;;0.40;;
14001;SDS011;7076;51.280;12.584;2023-04-01T02:29:18;0.90;;;0.40;;
14001;SDS011;7076;51.280;12.584;2023-04-01T02:34:22;1.38;;;0.57;;
14001;SDS011;7076;51.280;12.584;2023-04-01T02:39:26;2.40;;;0.55;;
14001;SDS011;7076;51.280;12.584;2023-04-01T02:44:29;0.77;;;0.50;;
14001;SDS011;7076;51.280;12.584;2023-04-01T02:49:32;1.70;;;0.55;;
14001;SDS011;7076;51.280;12.584;2023-04-01T02:54:37;1.80;;;0.60;;
14001;SDS011;7076;51.280;12.584;2023-04-01T02:59:39;0.73;;;0.50;;
14001;SDS011;7076;51.280;12.584;2023-04-01T03:04:42;2.75;;;0.60;;
14001;SDS011;7076;51.280;12.584;2023-04-01T03:09:47;2.72;;;0.68;;
14001;SDS011;7076;51.280;12.584;2023-04-01T03:14:49;1.10;;;0.40;;
14001;SDS011;7076;51.280;12.584;2023-04-01T03:19:52;1.25;;;0.70;;
14001;SDS011;7076;51.280;12.584;2023-04-01T03:24:56;2.80;;;0.85;;
14001;SDS011;7076;51.280;12.584;2023-04-01T03:29:58;0.90;;;0.50;;
14001;SDS011;7076;51.280;12.584;2023-04-01T03:35:02;1.77;;;0.50;;
14001;SDS011;7076;51.280;12.584;2023-04-01T03:40:07;0.60;;;0.45;;
14001;SDS011;7076;51.280;12.584;2023-04-01T03:45:10;1.55;;;0.65;;
14001;SDS011;7076;51.280;12.584;2023-04-01T03:50:13;1.65;;;0.60;;
14001;SDS011;7076;51.280;12.584;2023-04-01T03:55:17;1.52;;;0.65;;
14001;SDS011;7076;51.280;12.584;2023-04-01T04:00:21;1.17;;;0.57;;
14001;SDS011;7076;51.280;12.584;2023-04-01T04:05:28;1.88;;;0.70;;
14001;SDS011;7076;51.280;12.584;2023-04-01T04:10:32;0.98;;;0.52;;
14001;SDS011;7076;51.280;12.584;2023-04-01T04:15:36;1.45;;;0.70;;
14001;SDS011;7076;51.280;12.584;2023-04-01T04:20:43;2.20;;;0.57;;
14001;SDS011;7076;51.280;12.584;2023-04-01T04:25:54;2.17;;;0.52;;
14001;SDS011;7076;51.280;12.584;2023-04-01T04:30:58;0.88;;;0.55;;
14001;SDS011;7076;51.280;12.584;2023-04-01T04:36:01;2.92;;;0.68;;
14001;SDS011;7076;51.280;12.584;2023-04-01T04:41:09;2.35;;;0.60;;
14001;SDS011;7076;51.280;12.584;2023-04-01T04:46:14;2.75;;;0.70;;
14001;SDS011;7076;51.280;12.584;2023-04-01T04:51:20;1.83;;;0.60;;
14001;SDS011;7076;51.280;12.584;2023-04-01T04:56:24;2.08;;;0.63;;
14001;SDS011;7076;51.280;12.584;2023-04-01T05:01:38;2.60;;;0.47;;
14001;SDS011;7076;51.280;12.584;2023-04-01T05:06:42;1.77;;;0.50;;
14001;SDS011;7076;51.280;12.584;2023-04-01T05:11:46;2.35;;;0.70;;
14001;SDS011;7076;51.280;12.584;2023-04-01T05:16:49;2.25;;;0.50;;
14001;SDS011;7076;51.280;12.584;2023-04-01T05:21:52;1.27;;;0.60;;
14001;SDS011;7076;51.280;12.584;2023-04-01T05:26:56;2.55;;;0.60;;
14001;SDS011;7076;51.280;12.584;2023-04-01T05:32:00;1.00;;;0.50;;
14001;SDS011;7076;51.280;12.584;2023-04-01T05:37:03;2.63;;;0.73;;
14001;SDS011;7076;51.280;12.584;2023-04-01T05:42:07;1.42;;;0.73;;
14001;SDS011;7076;51.280;12.584;2023-04-01T05:47:11;3.53;;;0.80;;
14001;SDS011;7076;51.280;12.584;2023-04-01T05:52:13;2.00;;;0.60;;
14001;SDS011;7076;51.280;12.584;2023-04-01T05:57:18;1.15;;;0.52;;
14001;SDS011;7076;51.280;12.584;2023-04-01T06:02:21;1.73;;;0.50;;
14001;SDS011;7076;51.280;12.584;2023-04-01T06:07:24;2.85;;;0.60;;
14001;SDS011;7076;51.280;12.584;2023-04-01T06:12:35;2.95;;;0.70;;
14001;SDS011;7076;51.280;12.584;2023-04-01T06:17:43;1.13;;;0.57;;
14001;SDS011;7076;51.280;12.584;2023-04-01T06:22:56;1.05;;;0.38;;
14001;SDS011;7076;51.280;12.584;2023-04-01T06:28:23;2.20;;;0.50;;
14001;SDS011;7076;51.280;12.584;2023-04-01T06:33:35;1.20;;;0.47;;
14001;SDS011;7076;51.280;12.584;2023-04-01T06:44:16;1.23;;;0.50;;
14001;SDS011;7076;51.280;12.584;2023-04-01T06:49:42;1.75;;;0.52;;
14001;SDS011;7076;51.280;12.584;2023-04-01T06:55:16;2.17;;;0.52;;
14001;SDS011;7076;51.280;12.584;2023-04-01T07:00:48;0.50;;;0.50;;
14001;SDS011;7076;51.280;12.584;2023-04-01T07:05:51;2.03;;;0.75;;
14001;SDS011;7076;51.280;12.584;2023-04-01T07:10:56;1.75;;;0.50;;
14001;SDS011;7076;51.280;12.584;2023-04-01T07:16:21;3.33;;;0.82;;
14001;SDS011;7076;51.280;12.584;2023-04-01T07:21:27;2.55;;;0.60;;
14001;SDS011;7076;51.280;12.584;2023-04-01T07:26:35;2.13;;;0.75;;
14001;SDS011;7076;51.280;12.584;2023-04-01T07:31:49;0.40;;;0.40;;
14001;SDS011;7076;51.280;12.584;2023-04-01T07:36:53;1.35;;;0.60;;
14001;SDS011;7076;51.280;12.584;2023-04-01T07:41:58;1.50;;;0.52;;
14001;SDS011;7076;51.280;12.584;2023-04-01T07:47:08;3.13;;;0.85;;
14001;SDS011;7076;51.280;12.584;2023-04-01T07:52:15;3.38;;;0.70;;
14001;SDS011;7076;51.280;12.584;2023-04-01T07:57:22;2.25;;;0.50;;
14001;SDS011;7076;51.280;12.584;2023-04-01T08:02:34;1.08;;;0.45;;
14001;SDS011;7076;51.280;12.584;2023-04-01T08:07:43;0.90;;;0.40;;
14001;SDS011;7076;51.280;12.584;2023-04-01T08:13:12;1.52;;;0.60;;
14001;SDS011;7076;51.280;12.584;2023-04-01T08:18:40;1.83;;;0.60;;
14001;SDS011;7076;51.280;12.584;2023-04-01T08:23:44;1.38;;;0.40;;
14001;SDS011;7076;51.280;12.584;2023-04-01T08:28:50;0.90;;;0.50;;
14001;SDS011;7076;51.280;12.584;2023-04-01T08:33:59;3.08;;;0.80;;
14001;SDS011;7076;51.280;12.584;2023-04-01T08:39:04;1.35;;;0.47;;
14001;SDS011;7076;51.280;12.584;2023-04-01T08:44:15;1.45;;;0.40;;
14001;SDS011;7076;51.280;12.584;2023-04-01T08:49:26;2.30;;;0.50;;
14001;SDS011;7076;51.280;12.584;2023-04-01T09:00:05;2.85;;;0.52;;
14001;SDS011;7076;51.280;12.584;2023-04-01T09:05:38;3.20;;;0.70;;
14001;SDS011;7076;51.280;12.584;2023-04-01T09:10:46;3.42;;;0.60;;
14001;SDS011;7076;51.280;12.584;2023-04-01T09:16:22;0.47;;;0.40;;
14001;SDS011;7076;51.280;12.584;2023-04-01T09:21:34;4.60;;;3.65;;
14001;SDS011;7076;51.280;12.584;2023-04-01T09:26:43;2.13;;;0.70;;
14001;SDS011;7076;51.280;12.584;2023-04-01T09:31:57;1.40;;;0.50;;
14001;SDS011;7076;51.280;12.584;2023-04-01T09:37:21;1.45;;;0.45;;
14001;SDS011;7076;51.280;12.584;2023-04-01T09:42:39;2.05;;;0.50;;
14001;SDS011;7076;51.280;12.584;2023-04-01T09:47:56;2.63;;;2.38;;
14001;SDS011;7076;51.280;12.584;2023-04-01T09:53:07;1.23;;;0.85;;
14001;SDS011;7076;51.280;12.584;2023-04-01T09:58:27;1.35;;;0.40;;
14001;SDS011;7076;51.280;12.584;2023-04-01T10:04:14;6.80;;;0.50;;
14001;SDS011;7076;51.280;12.584;2023-04-01T10:09:29;0.50;;;0.30;;
14001;SDS011;7076;51.280;12.584;2023-04-01T10:36:33;1.88;;;0.50;;
14001;SDS011;7076;51.280;12.584;2023-04-01T10:41:43;0.30;;;0.30;;
14001;SDS011;7076;51.280;12.584;2023-04-01T10:47:20;2.92;;;0.90;;
14001;SDS011;7076;51.280;12.584;2023-04-01T10:52:34;2.03;;;0.70;;
14001;SDS011;7076;51.280;12.584;2023-04-01T11:09:42;1.15;;;0.47;;
14001;SDS011;7076;51.280;12.584;2023-04-01T11:15:08;1.38;;;0.70;;
14001;SDS011;7076;51.280;12.584;2023-04-01T11:20:32;0.50;;;0.45;;
14001;SDS011;7076;51.280;12.584;2023-04-01T11:25:46;1.45;;;0.50;;
14001;SDS011;7076;51.280;12.584;2023-04-01T11:31:25;1.00;;;0.50;;
14001;SDS011;7076;51.280;12.584;2023-04-01T11:36:34;0.73;;;0.40;;
14001;SDS011;7076;51.280;12.584;2023-04-01T11:41:46;0.30;;;0.30;;
14001;SDS011;7076;51.280;12.584;2023-04-01T11:47:16;0.70;;;0.20;;
14001;SDS011;7076;51.280;12.584;2023-04-01T11:52:25;1.42;;;0.40;;
14001;SDS011;7076;51.280;12.584;2023-04-01T12:03:00;1.10;;;0.30;;
14001;SDS011;7076;51.280;12.584;2023-04-01T12:08:27;0.55;;;0.40;;
14001;SDS011;7076;51.280;12.584;2023-04-01T12:13:36;0.30;;;0.30;;
14001;SDS011;7076;51.280;12.584;2023-04-01T12:18:46;0.30;;;0.30;;
14001;SDS011;7076;51.280;12.584;2023-04-01T12:24:00;0.77;;;0.40;;
14001;SDS011;7076;51.280;12.584;2023-04-01T12:29:13;0.63;;;0.63;;
14001;SDS011;7076;51.280;12.584;2023-04-01T12:34:33;1.27;;;0.60;;
14001;SDS011;7076;51.280;12.584;2023-04-01T12:45:18;0.55;;;0.35;;
14001;SDS011;7076;51.280;12.584;2023-04-01T12:50:33;0.20;;;0.20;;
14001;SDS011;7076;51.280;12.584;2023-04-01T12:55:41;0.50;;;0.20;;
14001;SDS011;7076;51.280;12.584;2023-04-01T13:00:46;1.10;;;0.40;;
14001;SDS011;7076;51.280;12.584;2023-04-01T13:11:20;0.50;;;0.50;;
14001;SDS011;7076;51.280;12.584;2023-04-01T13:16:28;0.20;;;0.20;;
14001;SDS011;7076;51.280;12.584;2023-04-01T13:21:34;0.20;;;0.20;;
14001;SDS011;7076;51.280;12.584;2023-04-01T13:26:45;0.80;;;0.22;;
14001;SDS011;7076;51.280;12.584;2023-04-01T13:31:53;1.00;;;0.28;;
14001;SDS011;7076;51.280;12.584;2023-04-01T13:37:02;0.22;;;0.22;;
14001;SDS011;7076;51.280;12.584;2023-04-01T13:42:16;0.32;;;0.22;;
14001;SDS011;7076;51.280;12.584;2023-04-01T13:47:24;0.20;;;0.20;;
14001;SDS011;7076;51.280;12.584;2023-04-01T13:52:47;0.30;;;0.20;;
14001;SDS011;7076;51.280;12.584;2023-04-01T13:58:00;0.38;;;0.22;;
14001;SDS011;7076;51.280;12.584;2023-04-01T14:03:12;0.40;;;0.20;;
14001;SDS011;7076;51.280;12.584;2023-04-01T14:08:19;0.60;;;0.28;;
14001;SDS011;7076;51.280;12.584;2023-04-01T14:13:26;0.45;;;0.20;;
14001;SDS011;7076;51.280;12.584;2023-04-01T14:18:38;0.20;;;0.20;;
14001;SDS011;7076;51.280;12.584;2023-04-01T14:23:50;0.30;;;0.30;;
14001;SDS011;7076;51.280;12.584;2023-04-01T14:28:58;1.65;;;0.65;;
14001;SDS011;7076;51.280;12.584;2023-04-01T14:34:06;1.17;;;0.60;;
14001;SDS011;7076;51.280;12.584;2023-04-01T14:44:40;0.75;;;0.60;;
14001;SDS011;7076;51.280;12.584;2023-04-01T14:49:46;0.90;;;0.65;;
14001;SDS011;7076;51.280;12.584;2023-04-01T14:54:49;0.60;;;0.57;;
14001;SDS011;7076;51.280;12.584;2023-04-01T14:59:59;2.15;;;0.70;;
14001;SDS011;7076;51.280;12.584;2023-04-01T15:05:05;1.23;;;0.80;;
14001;SDS011;7076;51.280;12.584;2023-04-01T15:10:15;0.73;;;0.50;;
14001;SDS011;7076;51.280;12.584;2023-04-01T15:15:27;1.50;;;0.50;;
14001;SDS011;7076;51.280;12.584;2023-04-01T15:26:02;0.88;;;0.80;;
14001;SDS011;7076;51.280;12.584;2023-04-01T15:31:11;0.82;;;0.50;;
14001;SDS011;7076;51.280;12.584;2023-04-01T15:36:20;0.70;;;0.70;;
14001;SDS011;7076;51.280;12.584;2023-04-01T15:41:28;0.70;;;0.70;;
14001;SDS011;7076;51.280;12.584;2023-04-01T15:46:48;0.88;;;0.88;;
14001;SDS011;7076;51.280;12.584;2023-04-01T15:52:06;1.25;;;0.80;;
14001;SDS011;7076;51.280;12.584;2023-04-01T15:57:15;2.40;;;1.73;;
14001;SDS011;7076;51.280;12.584;2023-04-01T16:02:22;1.85;;;1.30;;
14001;SDS011;7076;51.280;12.584;2023-04-01T16:13:02;1.58;;;0.70;;
14001;SDS011;7076;51.280;12.584;2023-04-01T16:18:15;0.98;;;0.80;;
14001;SDS011;7076;51.280;12.584;2023-04-01T16:23:20;0.82;;;0.65;;
14001;SDS011;7076;51.280;12.584;2023-04-01T16:28:25;1.20;;;0.93;;
14001;SDS011;7076;51.280;12.584;2023-04-01T16:33:34;2.58;;;1.83;;
14001;SDS011;7076;51.280;12.584;2023-04-01T16:38:38;1.05;;;0.95;;
14001;SDS011;7076;51.280;12.584;2023-04-01T16:43:44;0.70;;;0.70;;
14001;SDS011;7076;51.280;12.584;2023-04-01T16:48:55;1.80;;;0.90;;
14001;SDS011;7076;51.280;12.584;2023-04-01T16:54:02;2.35;;;0.90;;
14001;SDS011;7076;51.280;12.584;2023-04-01T16:59:13;2.00;;;1.15;;
14001;SDS011;7076;51.280;12.584;2023-04-01T17:04:20;2.15;;;1.00;;
14001;SDS011;7076;51.280;12.584;2023-04-01T17:09:30;4.07;;;3.13;;
14001;SDS011;7076;51.280;12.584;2023-04-01T17:14:38;3.33;;;1.70;;
14001;SDS011;7076;51.280;12.584;2023-04-01T17:25:20;3.22;;;1.45;;
14001;SDS011;7076;51.280;12.584;2023-04-01T17:30:26;1.30;;;1.20;;
14001;SDS011;7076;51.280;12.584;2023-04-01T17:35:30;1.10;;;1.00;;
14001;SDS011;7076;51.280;12.584;2023-04-01T17:40:37;1.10;;;0.95;;
14001;SDS011;7076;51.280;12.584;2023-04-01T17:45:44;2.95;;;1.90;;
14001;SDS011;7076;51.280;12.584;2023-04-01T17:50:51;3.13;;;2.78;;
14001;SDS011;7076;51.280;12.584;2023-04-01T17:56:01;1.92;;;1.58;;
14001;SDS011;7076;51.280;12.584;2023-04-01T18:01:08;2.65;;;1.95;;
14001;SDS011;7076;51.280;12.584;2023-04-01T18:06:14;6.90;;;2.63;;
14001;SDS011;7076;51.280;12.584;2023-04-01T18:11:20;8.73;;;2.67;;
14001;SDS011;7076;51.280;12.584;2023-04-01T18:16:30;11.23;;;4.07;;
14001;SDS011;7076;51.280;12.584;2023-04-01T18:21:40;8.57;;;2.88;;
14001;SDS011;7076;51.280;12.584;2023-04-01T18:26:48;6.38;;;2.05;;
14001;SDS011;7076;51.280;12.584;2023-04-01T18:31:54;10.27;;;4.53;;
14001;SDS011;7076;51.280;12.584;2023-04-01T18:36:58;3.83;;;2.92;;
14001;SDS011;7076;51.280;12.584;2023-04-01T18:42:06;3.20;;;1.60;;
14001;SDS011;7076;51.280;12.584;2023-04-01T18:47:19;1.63;;;1.25;;
14001;SDS011;7076;51.280;12.584;2023-04-01T18:52:25;2.35;;;1.73;;
14001;SDS011;7076;51.280;12.584;2023-04-01T18:57:38;2.50;;;1.70;;
14001;SDS011;7076;51.280;12.584;2023-04-01T19:02:43;5.55;;;2.35;;
14001;SDS011;7076;51.280;12.584;2023-04-01T19:07:48;3.22;;;2.83;;
14001;SDS011;7076;51.280;12.584;2023-04-01T19:12:58;4.10;;;2.63;;
14001;SDS011;7076;51.280;12.584;2023-04-01T19:18:11;5.60;;;3.33;;
14001;SDS011;7076;51.280;12.584;2023-04-01T19:28:41;3.80;;;3.10;;
14001;SDS011;7076;51.280;12.584;2023-04-01T19:33:49;5.20;;;3.35;;
14001;SDS011;7076;51.280;12.584;2023-04-01T19:38:55;2.03;;;1.80;;
14001;SDS011;7076;51.280;12.584;2023-04-01T19:44:04;1.30;;;0.90;;
14001;SDS011;7076;51.280;12.584;2023-04-01T19:54:36;3.17;;;2.30;;
14001;SDS011;7076;51.280;12.584;2023-04-01T19:59:44;1.65;;;1.48;;
14001;SDS011;7076;51.280;12.584;2023-04-01T20:04:50;1.83;;;1.50;;
14001;SDS011;7076;51.280;12.584;2023-04-01T20:09:57;3.63;;;1.65;;
14001;SDS011;7076;51.280;12.584;2023-04-01T20:15:03;1.60;;;1.40;;
14001;SDS011;7076;51.280;12.584;2023-04-01T20:20:15;1.40;;;1.30;;
14001;SDS011;7076;51.280;12.584;2023-04-01T20:25:20;2.85;;;1.42;;
14001;SDS011;7076;51.280;12.584;2023-04-01T20:30:30;1.38;;;1.27;;
14001;SDS011;7076;51.280;12.584;2023-04-01T20:35:36;1.25;;;1.15;;
14001;SDS011;7076;51.280;12.584;2023-04-01T20:40:41;2.58;;;1.55;;
14001;SDS011;7076;51.280;12.584;2023-04-01T20:45:50;1.50;;;1.40;;
14001;SDS011;7076;51.280;12.584;2023-04-01T20:50:57;1.38;;;1.27;;
14001;SDS011;7076;51.280;12.584;2023-04-01T20:56:15;2.05;;;1.88;;
14001;SDS011;7076;51.280;12.584;2023-04-01T21:01:24;1.35;;;1.25;;
14001;SDS011;7076;51.280;12.584;2023-04-01T21:06:34;2.42;;;1.58;;
14001;SDS011;7076;51.280;12.584;2023-04-01T21:11:44;1.60;;;1.50;;
14001;SDS011;7076;51.280;12.584;2023-04-01T21:16:51;1.98;;;1.77;;
14001;SDS011;7076;51.280;12.584;2023-04-01T21:22:01;1.95;;;1.80;;
14001;SDS011;7076;51.280;12.584;2023-04-01T21:27:10;2.08;;;1.80;;
14001;SDS011;7076;51.280;12.584;2023-04-01T21:32:19;1.55;;;1.45;;
14001;SDS011;7076;51.280;12.584;2023-04-01T21:37:42;2.05;;;1.85;;
14001;SDS011;7076;51.280;12.584;2023-04-01T21:42:48;2.05;;;1.85;;
14001;SDS011;7076;51.280;12.584;2023-04-01T21:47:59;2.50;;;2.03;;
14001;SDS011;7076;51.280;12.584;2023-04-01T21:58:32;2.80;;;2.38;;
14001;SDS011;7076;51.280;12.584;2023-04-01T22:14:16;2.47;;;2.17;;
14001;SDS011;7076;51.280;12.584;2023-04-01T22:19:24;2.72;;;2.35;;
14001;SDS011;7076;51.280;12.584;2023-04-01T22:24:33;2.42;;;2.22;;
14001;SDS011;7076;51.280;12.584;2023-04-01T22:29:42;2.25;;;1.90;;
14001;SDS011;7076;51.280;12.584;2023-04-01T22:34:48;2.65;;;2.40;;
14001;SDS011;7076;51.280;12.584;2023-04-01T22:39:59;3.25;;;2.05;;
14001;SDS011;7076;51.280;12.584;2023-04-01T22:45:10;3.15;;;2.55;;
14001;SDS011;7076;51.280;12.584;2023-04-01T22:50:23;2.60;;;2.40;;
14001;SDS011;7076;51.280;12.584;2023-04-01T22:55:28;3.05;;;2.75;;
14001;SDS011;7076;51.280;12.584;2023-04-01T23:00:33;4.40;;;2.65;;
14001;SDS011;7076;51.280;12.584;2023-04-01T23:05:39;2.22;;;1.70;;
14001;SDS011;7076;51.280;12.584;2023-04-01T23:10:43;2.60;;;2.25;;
14001;SDS011;7076;51.280;12.584;2023-04-01T23:15:51;3.05;;;2.05;;
14001;SDS011;7076;51.280;12.584;2023-04-01T23:20:58;2.20;;;1.80;;
14001;SDS011;7076;51.280;12.584;2023-04-01T23:26:05;3.10;;;2.00;;
14001;SDS011;7076;51.280;12.584;2023-04-01T23:36:45;2.13;;;1.90;;
14001;SDS011;7076;51.280;12.584;2023-04-01T23:41:48;2.85;;;1.83;;
14001;SDS011;7076;51.280;12.584;2023-04-01T23:46:51;2.20;;;2.00;;
14001;SDS011;7076;51.280;12.584;2023-04-01T23:51:57;2.20;;;2.00;;
14001;SDS011;7076;51.280;12.584;2023-04-01T23:57:04;2.40;;;2.00;;
